Time;durP1;ratioP1;P1;durP2;ratioP2;P2;SDS_P1;SDS_P2;PMS_P1;PMS_P2;Temp;Humidity;BMP_temperature;BMP_pressure;BME280_temperature;BME280_humidity;BME280_pressure;Samples;Min_cycle;Max_cycle;Signal;HPM_P1;HPM_P2
2022/12/17 13:07:24;;;;;;;6.07;5.63;;;11.70;99.90;;;;;;4257145;28;20050;-91
2022/12/17 13:09:53;;;;;;;8.20;7.40;;;11.80;99.90;;;;;;4245159;28;20119;-91
2022/12/17 13:12:22;;;;;;;10.05;5.75;;;11.80;99.90;;;;;;4257045;28;20103;-91
2022/12/17 13:14:57;;;;;;;5.82;5.30;;;11.80;99.90;;;;;;4240121;28;20369;-91
2022/12/17 13:17:17;;;;;;;7.47;5.50;;;11.70;99.90;;;;;;4241915;28;20107;-91
2022/12/17 13:19:57;;;;;;;6.45;5.88;;;11.70;99.90;;;;;;4257279;28;20107;-92
2022/12/17 13:22:17;;;;;;;10.98;6.03;;;11.60;99.90;;;;;;4241969;28;20255;-91
2022/12/17 13:24:46;;;;;;;5.05;4.65;;;11.60;99.90;;;;;;4256248;28;20062;-91
2022/12/17 13:27:35;;;;;;;9.75;6.05;;;11.60;99.90;;;;;;4241256;28;20113;-91
2022/12/17 13:29:55;;;;;;;3.90;3.70;;;11.50;99.90;;;;;;4229205;28;20047;-91
2022/12/17 13:32:31;;;;;;;3.55;2.00;;;11.70;99.90;;;;;;4242029;28;20093;-92
2022/12/17 13:35:20;;;;;;;3.58;3.28;;;11.80;99.90;;;;;;4240492;28;20318;-91
2022/12/17 13:38:01;;;;;;;3.95;3.22;;;11.90;99.90;;;;;;4254971;28;20273;-92
2022/12/17 13:40:47;;;;;;;4.78;4.47;;;11.90;99.90;;;;;;4256643;28;20160;-91
2022/12/17 13:43:19;;;;;;;4.20;3.03;;;11.70;99.90;;;;;;4256507;28;20087;-91
2022/12/17 13:45:42;;;;;;;3.72;3.63;;;11.50;99.90;;;;;;4237412;28;20133;-90
2022/12/17 13:48:03;;;;;;;12.45;11.38;;;11.50;99.90;;;;;;4256969;28;20042;-92
2022/12/17 13:50:28;;;;;;;10.23;9.18;;;11.50;99.90;;;;;;4241056;28;20055;-92
2022/12/17 13:53:07;;;;;;;7.68;6.40;;;11.40;99.90;;;;;;4257109;28;20078;-92
2022/12/17 13:55:28;;;;;;;6.93;6.47;;;11.40;99.90;;;;;;4256984;28;20050;-92
2022/12/17 13:57:49;;;;;;;6.47;5.97;;;11.20;99.90;;;;;;4257015;28;20059;-91
2022/12/17 14:00:25;;;;;;;6.68;3.83;;;11.10;99.90;;;;;;4256918;28;20050;-91
2022/12/17 14:02:45;;;;;;;11.23;9.50;;;11.10;99.90;;;;;;4254593;27;20097;-91
2022/12/17 14:05:23;;;;;;;10.75;9.02;;;11.10;99.90;;;;;;4241563;28;20054;-92
2022/12/17 14:07:43;;;;;;;10.38;9.27;;;11.10;99.90;;;;;;4241371;28;20096;-92
2022/12/17 14:10:04;;;;;;;8.85;8.27;;;11.10;99.90;;;;;;4241447;28;20103;-91
2022/12/17 14:12:26;;;;;;;4.97;4.50;;;11.10;99.90;;;;;;4256745;28;20439;-91
2022/12/17 14:14:54;;;;;;;6.05;5.53;;;11.00;99.90;;;;;;4241563;28;20051;-92
2022/12/17 14:17:21;;;;;;;7.30;6.93;;;11.00;99.90;;;;;;4254964;28;20074;-91
2022/12/17 14:19:41;;;;;;;12.15;11.13;;;10.90;99.90;;;;;;4254375;28;20057;-92
2022/12/17 14:22:17;;;;;;;10.77;9.77;;;11.00;99.90;;;;;;4255044;28;20231;-92
2022/12/17 14:24:37;;;;;;;9.75;9.13;;;11.00;99.90;;;;;;4236762;28;20077;-91
2022/12/17 14:27:02;;;;;;;6.63;5.13;;;11.00;99.90;;;;;;4257475;28;20076;-91
2022/12/17 14:29:30;;;;;;;6.35;6.00;;;11.10;99.90;;;;;;4250106;28;20422;-91
2022/12/17 14:32:20;;;;;;;5.18;4.80;;;11.00;99.90;;;;;;4238950;28;20047;-91
2022/12/17 14:34:41;;;;;;;9.00;8.20;;;11.00;99.90;;;;;;4267722;27;20121;-91
2022/12/17 14:37:01;;;;;;;12.02;10.13;;;10.90;99.90;;;;;;4252335;27;20052;-90
2022/12/17 14:39:32;;;;;;;9.45;8.45;;;10.90;99.90;;;;;;4269015;27;20031;-89
2022/12/17 14:44:33;;;;;;;6.13;5.32;;;10.90;99.90;;;;;;4258404;28;20042;-92
2022/12/17 14:47:05;;;;;;;10.50;9.55;;;10.70;99.90;;;;;;4241544;28;20089;-91
2022/12/17 14:49:25;;;;;;;12.40;11.23;;;10.60;99.90;;;;;;4256627;28;20137;-91
2022/12/17 14:51:47;;;;;;;24.90;22.35;;;10.60;99.90;;;;;;4241317;28;20262;-91
2022/12/17 14:54:24;;;;;;;10.98;9.90;;;10.60;99.90;;;;;;4239850;28;20039;-91
2022/12/17 14:56:46;;;;;;;9.68;9.10;;;10.70;99.90;;;;;;4240780;28;20092;-92
2022/12/17 14:59:27;;;;;;;12.75;10.43;;;10.70;99.90;;;;;;4254990;28;20111;-91
2022/12/17 15:01:47;;;;;;;20.95;18.50;;;10.80;99.90;;;;;;4255965;28;20041;-91
2022/12/17 15:04:15;;;;;;;17.23;15.45;;;10.60;99.90;;;;;;4256385;28;20063;-91
2022/12/17 15:06:35;;;;;;;52.67;38.42;;;10.40;99.90;;;;;;4238873;28;20353;-91
2022/12/17 15:08:55;;;;;;;19.60;17.63;;;10.30;99.90;;;;;;4255124;28;20046;-91
2022/12/17 15:11:20;;;;;;;18.70;13.75;;;10.10;99.90;;;;;;4256014;28;20298;-91
2022/12/17 15:13:41;;;;;;;44.53;29.42;;;10.00;99.90;;;;;;4240595;28;20365;-91
2022/12/17 15:16:02;;;;;;;31.83;26.13;;;9.80;99.90;;;;;;4256981;27;20042;-91
2022/12/17 15:18:22;;;;;;;29.85;24.40;;;9.60;99.90;;;;;;4242295;28;20046;-91
2022/12/17 15:20:42;;;;;;;15.52;13.68;;;9.60;99.90;;;;;;4258955;28;20357;-90
2022/12/17 15:23:03;;;;;;;66.32;44.63;;;9.60;99.90;;;;;;4243704;28;20085;-91
2022/12/17 15:25:24;;;;;;;60.28;41.50;;;9.70;99.90;;;;;;4243294;28;20381;-91
2022/12/17 15:27:45;;;;;;;68.45;46.78;;;9.80;99.90;;;;;;4243630;28;20105;-91
2022/12/17 15:30:05;;;;;;;80.72;58.35;;;9.70;99.90;;;;;;4243769;28;20312;-91
2022/12/17 15:32:25;;;;;;;96.63;65.13;;;9.60;99.90;;;;;;4258964;28;20042;-91
2022/12/17 15:34:46;;;;;;;33.15;26.02;;;9.60;99.90;;;;;;4257860;28;20054;-91
2022/12/17 15:37:06;;;;;;;20.45;16.02;;;9.60;99.90;;;;;;4258702;28;20064;-91
2022/12/17 15:39:26;;;;;;;18.80;14.88;;;9.50;99.90;;;;;;4257723;28;20043;-91
2022/12/17 15:44:24;;;;;;;32.15;25.17;;;9.30;99.90;;;;;;4257428;28;20140;-91
2022/12/17 15:46:43;;;;;;;25.33;20.58;;;9.20;99.90;;;;;;4243326;28;20054;-91
2022/12/17 15:49:03;;;;;;;22.23;19.42;;;9.10;99.90;;;;;;4258539;28;20074;-91
2022/12/17 15:51:24;;;;;;;17.15;14.35;;;9.00;99.90;;;;;;4243423;28;20112;-91
2022/12/17 15:53:43;;;;;;;13.50;11.80;;;8.90;99.90;;;;;;4257303;28;20066;-91
2022/12/17 15:56:03;;;;;;;12.00;10.32;;;8.80;99.90;;;;;;4258195;28;20370;-91
2022/12/17 15:58:23;;;;;;;24.17;16.92;;;8.90;99.90;;;;;;4242929;28;20054;-91
2022/12/17 16:00:42;;;;;;;30.42;24.50;;;8.80;99.90;;;;;;4242866;28;20046;-91
2022/12/17 16:03:03;;;;;;;28.85;23.52;;;8.70;99.90;;;;;;4242542;28;20431;-90
2022/12/17 16:05:23;;;;;;;25.90;22.50;;;8.60;99.90;;;;;;4242816;28;20046;-91
2022/12/17 16:07:43;;;;;;;26.15;22.10;;;8.50;99.90;;;;;;4242734;28;20038;-91
2022/12/17 16:10:04;;;;;;;20.75;18.63;;;8.40;99.90;;;;;;4242949;28;20047;-91
2022/12/17 16:12:25;;;;;;;14.57;12.60;;;8.30;99.90;;;;;;4242267;28;20378;-90
2022/12/17 16:14:45;;;;;;;19.27;16.52;;;8.40;99.90;;;;;;4242890;28;20116;-91
2022/12/17 16:17:05;;;;;;;26.48;17.02;;;8.30;99.90;;;;;;4241897;28;20050;-92
2022/12/17 16:19:25;;;;;;;20.10;13.43;;;8.40;99.90;;;;;;4256396;28;20337;-91
2022/12/17 16:21:47;;;;;;;29.27;23.20;;;8.20;99.90;;;;;;4242414;28;20066;-90
2022/12/17 16:24:09;;;;;;;29.15;25.27;;;8.20;99.90;;;;;;4243137;28;20072;-92
2022/12/17 16:26:29;;;;;;;14.40;12.93;;;8.10;99.90;;;;;;4257989;27;20054;-91
2022/12/17 16:28:49;;;;;;;14.68;13.05;;;8.10;99.90;;;;;;4241229;28;20042;-91
2022/12/17 16:31:12;;;;;;;18.77;16.20;;;8.10;99.90;;;;;;4242424;28;20070;-90
2022/12/17 16:33:37;;;;;;;22.35;18.00;;;8.10;99.90;;;;;;4257401;28;20076;-92
2022/12/17 16:35:57;;;;;;;28.40;19.60;;;8.00;99.90;;;;;;4242434;28;20370;-92
2022/12/17 16:38:17;;;;;;;33.08;26.15;;;8.00;99.90;;;;;;4244536;28;20085;-90
2022/12/17 16:40:38;;;;;;;42.72;38.08;;;8.00;99.90;;;;;;4258130;28;20154;-91
2022/12/17 16:42:58;;;;;;;39.05;33.50;;;8.00;99.90;;;;;;4257263;28;20284;-92
2022/12/17 16:45:18;;;;;;;37.47;30.98;;;7.80;99.90;;;;;;4256661;28;20050;-91
2022/12/17 16:47:38;;;;;;;30.23;24.42;;;7.60;99.90;;;;;;4242093;28;20038;-90
2022/12/17 16:49:58;;;;;;;21.48;19.05;;;7.40;99.90;;;;;;4257509;28;20084;-91
2022/12/17 16:52:18;;;;;;;36.72;28.02;;;7.40;99.90;;;;;;4240828;28;20096;-91
2022/12/17 16:54:38;;;;;;;28.83;24.60;;;7.30;99.90;;;;;;4242494;28;20045;-91
2022/12/17 16:56:59;;;;;;;21.13;18.90;;;7.20;99.90;;;;;;4242385;28;20098;-91
2022/12/17 16:59:19;;;;;;;22.33;19.10;;;7.30;99.90;;;;;;4241581;28;20425;-91
2022/12/17 17:01:43;;;;;;;12.48;11.25;;;7.30;99.90;;;;;;4257854;28;20072;-90
2022/12/17 17:04:08;;;;;;;11.32;10.52;;;7.40;99.90;;;;;;4257410;28;20114;-91
2022/12/17 17:06:28;;;;;;;10.63;9.93;;;7.40;99.90;;;;;;4256652;28;20242;-92
2022/12/17 17:08:53;;;;;;;23.95;16.85;;;7.40;99.90;;;;;;4241959;28;20046;-90
2022/12/17 17:11:15;;;;;;;55.40;45.47;;;7.40;99.90;;;;;;4242352;28;20308;-91
2022/12/17 17:13:36;;;;;;;57.37;41.90;;;7.30;99.90;;;;;;4257586;28;20242;-91
2022/12/17 17:15:55;;;;;;;38.05;30.80;;;7.20;99.90;;;;;;4257613;28;20045;-91
2022/12/17 17:18:16;;;;;;;31.52;27.83;;;7.10;99.90;;;;;;4257355;28;20234;-91
2022/12/17 17:20:35;;;;;;;17.30;15.75;;;7.10;99.90;;;;;;4257173;28;20047;-90
2022/12/17 17:22:55;;;;;;;25.65;20.17;;;7.10;99.90;;;;;;4255332;28;20058;-90
2022/12/17 17:25:17;;;;;;;29.17;25.98;;;7.00;99.90;;;;;;4241685;28;20202;-90
2022/12/17 17:27:36;;;;;;;15.55;14.13;;;6.90;99.90;;;;;;4240834;28;20377;-91
2022/12/17 17:29:57;;;;;;;19.13;17.33;;;6.90;99.90;;;;;;4257157;28;20091;-90
2022/12/17 17:32:23;;;;;;;46.85;35.30;;;6.90;99.90;;;;;;4255329;28;20412;-90
2022/12/17 17:34:43;;;;;;;53.20;39.63;;;6.80;99.90;;;;;;4255214;28;20043;-92
2022/12/17 17:37:03;;;;;;;41.00;30.45;;;6.70;99.90;;;;;;4256895;28;20291;-92
2022/12/17 17:39:23;;;;;;;39.63;29.77;;;6.70;99.90;;;;;;4255551;28;20080;-91
2022/12/17 17:41:43;;;;;;;35.88;26.00;;;6.70;99.90;;;;;;4257203;28;20227;-92
2022/12/17 17:44:06;;;;;;;25.30;22.67;;;6.70;99.90;;;;;;4256983;28;20050;-92
2022/12/17 17:46:28;;;;;;;33.80;28.95;;;6.60;99.90;;;;;;4241838;28;20093;-92
2022/12/17 17:48:49;;;;;;;33.42;28.45;;;6.50;99.90;;;;;;4241286;28;20250;-91
2022/12/17 17:51:30;;;;;;;27.80;19.70;;;6.50;99.90;;;;;;4241967;28;20095;-92
2022/12/17 17:54:11;;;;;;;42.78;31.10;;;6.50;99.90;;;;;;4244136;28;20238;-91
2022/12/17 17:56:37;;;;;;;44.92;36.80;;;6.40;99.90;;;;;;4256977;28;20042;-91
2022/12/17 17:59:03;;;;;;;80.65;58.25;;;6.40;99.90;;;;;;4256977;28;20042;-93
2022/12/17 18:01:26;;;;;;;88.72;63.38;;;6.30;99.90;;;;;;4256261;28;20038;-90
2022/12/17 18:03:46;;;;;;;77.47;56.55;;;6.20;99.90;;;;;;4255819;28;20230;-92
2022/12/17 18:06:10;;;;;;;82.45;54.85;;;6.20;99.90;;;;;;4257030;28;20073;-92
2022/12/17 18:08:30;;;;;;;58.55;38.75;;;6.10;99.90;;;;;;4256130;28;20193;-92
2022/12/17 18:10:55;;;;;;;48.05;33.97;;;6.10;99.90;;;;;;4257023;28;20042;-92
2022/12/17 18:16:00;;;;;;;26.10;22.10;;;6.10;99.90;;;;;;4256850;28;20085;-91
2022/12/17 18:18:20;;;;;;;54.15;36.13;;;6.10;99.90;;;;;;4255665;28;20103;-92
2022/12/17 18:20:40;;;;;;;30.80;25.80;;;6.10;99.90;;;;;;4256495;28;20046;-91
2022/12/17 18:23:00;;;;;;;24.92;22.25;;;6.00;99.90;;;;;;4255801;28;20118;-90
2022/12/17 18:25:21;;;;;;;24.63;22.00;;;6.00;99.90;;;;;;4256587;28;20050;-91
2022/12/17 18:27:41;;;;;;;31.73;27.13;;;5.80;99.90;;;;;;4241171;28;20452;-92
2022/12/17 18:30:02;;;;;;;30.42;23.10;;;5.70;99.90;;;;;;4256886;28;20070;-92
2022/12/17 18:32:22;;;;;;;37.58;30.00;;;5.70;99.90;;;;;;4256686;28;20088;-92
2022/12/17 18:34:42;;;;;;;61.45;42.25;;;5.70;99.90;;;;;;4241001;28;20435;-91
2022/12/17 18:37:04;;;;;;;85.35;49.65;;;5.60;99.90;;;;;;4240611;28;20043;-92
2022/12/17 18:39:24;;;;;;;106.22;54.92;;;5.70;99.90;;;;;;4241223;28;20078;-90
2022/12/17 18:44:24;;;;;;;83.05;56.25;;;5.70;99.90;;;;;;4255921;28;20107;-90
2022/12/17 18:46:44;;;;;;;66.47;47.53;;;5.70;99.90;;;;;;4256403;28;20314;-92
2022/12/17 18:49:08;;;;;;;67.13;46.42;;;5.60;99.90;;;;;;4255422;27;20369;-92
2022/12/17 18:51:28;;;;;;;47.85;34.35;;;5.50;99.90;;;;;;4238938;28;20089;-91
2022/12/17 18:53:49;;;;;;;62.78;43.97;;;5.50;99.90;;;;;;4240816;28;20050;-91
2022/12/17 18:56:10;;;;;;;78.75;57.55;;;5.50;99.90;;;;;;4241489;28;20080;-92
2022/12/17 18:58:30;;;;;;;61.90;46.15;;;5.50;99.90;;;;;;4257533;28;20050;-92
2022/12/17 19:00:52;;;;;;;99.45;67.13;;;5.40;99.90;;;;;;4257974;28;20103;-92
2022/12/17 19:03:13;;;;;;;76.93;50.80;;;5.40;99.90;;;;;;4255444;27;20042;-91
2022/12/17 19:05:39;;;;;;;53.90;41.28;;;5.30;99.90;;;;;;4269594;27;20050;-90
2022/12/17 19:08:05;;;;;;;25.63;21.27;;;5.40;99.90;;;;;;4268702;27;20038;-90
2022/12/17 19:10:25;;;;;;;50.17;36.03;;;5.40;99.90;;;;;;4242845;28;20042;-90
2022/12/17 19:12:45;;;;;;;42.65;33.83;;;5.30;99.90;;;;;;4257119;28;20050;-91
2022/12/17 19:15:05;;;;;;;70.97;49.35;;;5.20;99.90;;;;;;4255288;28;20061;-90
2022/12/17 19:17:25;;;;;;;58.22;43.30;;;5.30;99.90;;;;;;4256200;28;20138;-91
2022/12/17 19:19:46;;;;;;;80.95;56.22;;;5.20;99.90;;;;;;4240286;28;20112;-90
2022/12/17 19:22:07;;;;;;;83.07;56.25;;;5.20;99.90;;;;;;4256040;28;20099;-91
2022/12/17 19:24:27;;;;;;;76.75;56.33;;;5.20;99.90;;;;;;4239826;28;20055;-91
2022/12/17 19:26:48;;;;;;;151.30;104.25;;;5.20;99.90;;;;;;4255971;28;20080;-91
2022/12/17 19:29:09;;;;;;;105.47;71.40;;;5.20;99.90;;;;;;4255638;28;20107;-91
2022/12/17 19:31:31;;;;;;;92.07;59.80;;;5.10;99.90;;;;;;4240566;28;20080;-90
2022/12/17 19:33:55;;;;;;;110.15;52.75;;;5.00;99.90;;;;;;4240293;28;20068;-90
2022/12/17 19:36:18;;;;;;;98.68;45.10;;;4.90;99.90;;;;;;4238563;28;20050;-85
2022/12/17 19:38:44;;;;;;;232.88;53.10;;;4.80;99.90;;;;;;4255116;28;20286;-85
2022/12/17 19:41:10;;;;;;;54.25;39.65;;;4.70;99.90;;;;;;4239728;28;20054;-85
2022/12/17 19:43:30;;;;;;;70.50;45.60;;;4.70;99.90;;;;;;4255484;28;20054;-85
2022/12/17 19:45:50;;;;;;;63.08;43.28;;;4.70;99.90;;;;;;4255230;28;20321;-85
2022/12/17 19:48:13;;;;;;;94.72;41.92;;;4.80;99.90;;;;;;4239467;28;20077;-85
2022/12/17 19:50:33;;;;;;;108.72;36.05;;;4.70;99.90;;;;;;4254165;28;20115;-85
2022/12/17 19:52:53;;;;;;;83.80;34.15;;;4.60;99.90;;;;;;4255436;28;20092;-85
2022/12/17 19:55:13;;;;;;;30.88;24.20;;;4.60;99.90;;;;;;4253636;28;20239;-85
2022/12/17 19:57:35;;;;;;;82.72;41.58;;;4.70;99.90;;;;;;4254847;28;20072;-85
2022/12/17 19:59:55;;;;;;;45.10;35.58;;;4.80;99.90;;;;;;4254100;28;20053;-86
2022/12/17 20:02:16;;;;;;;46.25;32.92;;;4.70;99.90;;;;;;4242279;28;20100;-85
2022/12/17 20:04:36;;;;;;;41.38;33.28;;;4.80;99.90;;;;;;4258250;28;20054;-85
2022/12/17 20:06:56;;;;;;;35.83;28.20;;;4.80;99.90;;;;;;4241743;28;20073;-85
2022/12/17 20:09:16;;;;;;;33.22;27.50;;;4.80;99.90;;;;;;4242938;28;20094;-86
2022/12/17 20:11:36;;;;;;;31.23;27.58;;;4.90;99.90;;;;;;4242091;28;20054;-85
2022/12/17 20:14:04;;;;;;;33.63;25.48;;;4.90;99.90;;;;;;4242887;28;20042;-85
2022/12/17 20:16:25;;;;;;;20.10;18.15;;;4.90;99.90;;;;;;4257630;28;20399;-86
2022/12/17 20:18:45;;;;;;;32.05;25.75;;;4.90;99.90;;;;;;4258286;28;20080;-85
2022/12/17 20:21:05;;;;;;;107.15;79.15;;;4.80;99.90;;;;;;4257057;28;20046;-85
2022/12/17 20:23:25;;;;;;;111.95;81.70;;;4.70;99.90;;;;;;4241522;28;20057;-85
2022/12/17 20:25:44;;;;;;;68.65;51.63;;;4.70;99.90;;;;;;4241395;28;20055;-85
2022/12/17 20:28:04;;;;;;;64.38;46.70;;;4.80;99.90;;;;;;4242543;28;20693;-85
2022/12/17 20:30:24;;;;;;;65.53;49.30;;;4.60;99.90;;;;;;4257654;28;20041;-85
2022/12/17 20:32:44;;;;;;;61.50;50.53;;;4.50;99.90;;;;;;4240618;28;20389;-85
2022/12/17 20:35:04;;;;;;;58.50;45.70;;;4.50;99.90;;;;;;4257420;27;20050;-85
2022/12/17 20:37:24;;;;;;;76.97;51.88;;;4.50;99.90;;;;;;4257302;28;20057;-85
2022/12/17 20:39:44;;;;;;;99.80;62.45;;;4.40;99.90;;;;;;4242338;28;20061;-85
2022/12/17 20:42:04;;;;;;;56.17;42.35;;;4.30;99.90;;;;;;4241496;28;20118;-85
2022/12/17 20:44:23;;;;;;;51.13;40.65;;;4.30;99.90;;;;;;4256763;28;20100;-85
2022/12/17 20:46:43;;;;;;;87.97;62.78;;;4.40;99.90;;;;;;4257113;28;20238;-85
2022/12/17 20:49:04;;;;;;;91.30;54.58;;;4.50;99.90;;;;;;4241905;28;20069;-85
2022/12/17 20:51:25;;;;;;;185.65;56.05;;;4.40;99.90;;;;;;4242375;28;20077;-85
2022/12/17 20:53:46;;;;;;;97.57;52.03;;;4.10;99.90;;;;;;4257705;28;20373;-85
2022/12/17 20:56:12;;;;;;;379.08;67.70;;;3.80;99.90;;;;;;4241099;28;20145;-85
2022/12/17 20:58:32;;;;;;;103.10;56.88;;;3.80;99.90;;;;;;4232931;28;20388;-85
2022/12/17 21:00:59;;;;;;;275.25;70.82;;;3.70;99.90;;;;;;4257526;28;20050;-85
2022/12/17 21:03:19;;;;;;;240.82;70.15;;;3.70;99.90;;;;;;4256191;28;20084;-85
2022/12/17 21:05:39;;;;;;;424.42;89.68;;;3.70;99.90;;;;;;4241955;28;20089;-85
2022/12/17 21:07:59;;;;;;;260.67;76.75;;;3.40;99.90;;;;;;4235539;28;20081;-85
2022/12/17 21:10:19;;;;;;;361.45;77.75;;;3.60;99.90;;;;;;4257617;28;20083;-85
2022/12/17 21:15:17;;;;;;;145.68;59.40;;;3.30;99.90;;;;;;4256701;28;20049;-85
2022/12/17 21:17:37;;;;;;;453.73;93.18;;;3.40;99.90;;;;;;4257522;28;20076;-84
2022/12/17 21:19:56;;;;;;;119.25;62.92;;;3.40;99.90;;;;;;4256183;28;20046;-85
2022/12/17 21:22:25;;;;;;;267.15;82.95;;;3.60;99.90;;;;;;4243229;28;20054;-84
2022/12/17 21:24:44;;;;;;;420.27;70.85;;;3.50;99.90;;;;;;4257198;28;20281;-85
2022/12/17 21:27:05;;;;;;;416.90;70.68;;;3.40;99.90;;;;;;4242033;28;20078;-85
2022/12/17 21:29:32;;;;;;;82.50;33.15;;;3.30;99.90;;;;;;4257272;28;20050;-85
2022/12/17 21:31:51;;;;;;;42.10;32.15;;;3.50;99.90;;;;;;4256320;28;20057;-85
2022/12/17 21:34:15;;;;;;;34.25;28.27;;;3.70;99.90;;;;;;4256075;28;20089;-85
2022/12/17 21:36:35;;;;;;;29.75;26.65;;;3.80;99.90;;;;;;4241936;28;20148;-85
2022/12/17 21:38:55;;;;;;;132.65;51.65;;;3.90;99.90;;;;;;4257186;28;20054;-85
2022/12/17 21:41:18;;;;;;;97.35;58.70;;;3.80;99.90;;;;;;4241432;28;20365;-85
2022/12/17 21:43:39;;;;;;;86.28;53.17;;;3.80;99.90;;;;;;4243917;28;20088;-85
2022/12/17 21:45:59;;;;;;;67.28;46.38;;;3.80;99.90;;;;;;4256921;28;20058;-85
2022/12/17 21:48:19;;;;;;;37.50;29.95;;;3.90;99.90;;;;;;4241418;28;20064;-85
2022/12/17 21:50:40;;;;;;;63.63;41.97;;;3.90;99.90;;;;;;4255954;28;20081;-85
2022/12/17 21:53:01;;;;;;;235.33;67.00;;;3.70;99.90;;;;;;4241406;28;20380;-85
2022/12/17 21:55:20;;;;;;;162.75;67.78;;;3.60;99.90;;;;;;4256806;28;20087;-85
2022/12/17 21:57:40;;;;;;;140.73;63.05;;;3.50;99.90;;;;;;4256707;28;20084;-85
2022/12/17 22:00:00;;;;;;;100.43;51.60;;;3.40;99.90;;;;;;4255981;28;20128;-85
2022/12/17 22:02:20;;;;;;;68.32;32.97;;;3.40;99.90;;;;;;4241065;28;20058;-85
2022/12/17 22:04:40;;;;;;;245.25;49.28;;;3.30;99.90;;;;;;4241762;28;20096;-85
2022/12/17 22:07:00;;;;;;;238.48;48.75;;;3.10;99.90;;;;;;4241611;28;20174;-85
2022/12/17 22:09:32;;;;;;;91.85;41.15;;;3.00;99.90;;;;;;4256081;28;20046;-84
2022/12/17 22:14:50;;;;;;;83.50;36.67;;;3.10;99.90;;;;;;4255750;28;20056;-85
2022/12/17 22:17:10;;;;;;;86.05;40.03;;;3.10;99.90;;;;;;4256657;28;20246;-85
2022/12/17 22:19:32;;;;;;;53.25;36.95;;;2.90;99.90;;;;;;4241203;28;20088;-85
2022/12/17 22:21:52;;;;;;;97.07;41.78;;;3.00;99.90;;;;;;4256130;28;20099;-85
2022/12/17 22:24:21;;;;;;;62.97;36.38;;;2.90;99.90;;;;;;4255039;27;20557;-84
2022/12/17 22:26:41;;;;;;;85.53;35.97;;;2.90;99.90;;;;;;4237849;28;20123;-84
2022/12/17 22:29:02;;;;;;;82.93;34.20;;;2.80;99.90;;;;;;4256191;28;20070;-84
2022/12/17 22:34:01;;;;;;;71.50;35.60;;;2.70;99.90;;;;;;4256433;27;20034;-85
2022/12/17 22:36:41;;;;;;;83.75;38.65;;;2.70;99.90;;;;;;4255486;28;20083;-85
2022/12/17 22:39:21;;;;;;;90.43;41.42;;;2.60;99.90;;;;;;4243103;28;20049;-85
2022/12/17 22:44:59;;;;;;;93.47;35.53;;;2.70;99.90;;;;;;4256318;28;20361;-85
2022/12/17 22:47:28;;;;;;;143.55;46.22;;;2.50;99.90;;;;;;4254627;28;20072;-84
2022/12/17 22:49:49;;;;;;;225.35;49.80;;;2.40;99.90;;;;;;4255184;28;20380;-85
2022/12/17 22:52:09;;;;;;;230.07;49.92;;;2.30;99.90;;;;;;4256355;28;20046;-84
2022/12/17 22:54:28;;;;;;;241.73;50.03;;;2.30;99.90;;;;;;4256279;28;20076;-84
2022/12/17 22:56:49;;;;;;;114.05;46.75;;;2.20;99.90;;;;;;4255473;28;20098;-84
2022/12/17 22:59:28;;;;;;;44.38;32.70;;;2.20;99.90;;;;;;4256641;28;20242;-85
2022/12/17 23:01:50;;;;;;;78.97;46.30;;;2.50;99.90;;;;;;4241669;28;20262;-84
2022/12/17 23:04:12;;;;;;;75.00;41.80;;;2.60;99.90;;;;;;4254296;28;20256;-84
2022/12/17 23:06:32;;;;;;;75.47;42.65;;;2.30;99.90;;;;;;4244890;27;20399;-85
2022/12/17 23:08:52;;;;;;;85.13;43.47;;;2.30;99.90;;;;;;4264595;27;20033;-86
2022/12/17 23:11:21;;;;;;;128.93;39.38;;;2.40;99.90;;;;;;4260348;27;20091;-86
2022/12/17 23:13:41;;;;;;;216.23;41.92;;;2.30;99.90;;;;;;4255121;28;20057;-84
2022/12/17 23:16:02;;;;;;;233.18;40.50;;;2.30;99.90;;;;;;4254753;28;20065;-85
2022/12/17 23:18:22;;;;;;;248.02;40.30;;;2.20;99.90;;;;;;4254584;28;20222;-85
2022/12/17 23:20:41;;;;;;;377.13;48.28;;;2.20;99.90;;;;;;4240517;28;20062;-85
2022/12/17 23:23:01;;;;;;;361.92;43.15;;;2.10;99.90;;;;;;4242477;28;20046;-85
2022/12/17 23:25:22;;;;;;;405.58;43.40;;;2.10;99.90;;;;;;4238415;28;20119;-85
2022/12/17 23:27:44;;;;;;;290.08;38.60;;;2.10;99.90;;;;;;4256301;28;20046;-85
2022/12/17 23:30:05;;;;;;;276.85;37.35;;;2.10;99.90;;;;;;4240661;28;20247;-84
2022/12/17 23:32:25;;;;;;;248.02;33.05;;;2.10;99.90;;;;;;4240511;28;20058;-85
2022/12/17 23:34:46;;;;;;;265.05;34.10;;;2.10;99.90;;;;;;4255604;28;20042;-84
2022/12/17 23:37:05;;;;;;;191.65;29.65;;;2.10;99.90;;;;;;4241984;28;20125;-85
2022/12/17 23:39:25;;;;;;;250.68;28.80;;;2.10;99.90;;;;;;4242421;28;20097;-85
2022/12/17 23:41:45;;;;;;;148.93;26.23;;;2.10;99.90;;;;;;4243421;28;20090;-85
2022/12/17 23:44:05;;;;;;;22.50;19.90;;;2.10;99.90;;;;;;4257785;28;20081;-85
2022/12/17 23:46:27;;;;;;;168.55;26.02;;;2.10;99.90;;;;;;4258809;28;20094;-85
2022/12/17 23:48:48;;;;;;;172.63;27.38;;;2.00;99.90;;;;;;4257705;28;20046;-85
2022/12/17 23:51:09;;;;;;;359.10;31.25;;;2.10;99.90;;;;;;4242953;28;20042;-85
2022/12/17 23:53:30;;;;;;;257.90;26.08;;;2.10;99.90;;;;;;4243342;28;20300;-85
2022/12/17 23:55:50;;;;;;;135.98;22.00;;;2.20;99.90;;;;;;4258659;28;20046;-84
2022/12/17 23:58:11;;;;;;;167.90;24.20;;;2.20;99.90;;;;;;4243075;28;20115;-85
